Terminal Aerodrome Forecast
Issued by NWS

Home | Current Version | Previous Version | Text Only | Print | Product List | Glossary On
Versions: 1 2 3 4 5 6 7 8 9 10 11 12
000
FTUS45 KRIW 170500
TAFCPR
TAF
KCPR 170521Z 1706/1806 24006KT P6SM VCSH BKN120
      TEMPO 1706/1707 27018G28KT -SHRA
     FM170900 24006KT P6SM SCT120
     FM171800 27012KT P6SM SCT110
     FM172300 31011KT P6SM SCT110
     FM180200 VRB05KT P6SM SCT110=

USA.gov is the U.S. government's official web portal to all federal, state and local government web resources and services.